Terminal Aerodrome Forecast
Issued by NWS Central Illinois

Home | Current Version | Previous Version | Text Only | Print | Product List | Glossary On
Versions: 1 2 3 4 5 6 7 8 9 10 11 12 13 14 15 16 17 18 19 20 21 22 23 24 25 26 27 28 29 30
000
FTUS43 KILX 080320 AAA
TAFPIA
TAF AMD
KPIA 080320Z 0803/0824 04004KT 6SM HZ FEW045 BKN250
      TEMPO 0804/0807 4SM BR BKN045
     FM080700 06003KT 4SM BR SCT025 BKN150
     FM081300 06005KT 4SM -SHRA BR SCT012 BKN020
     FM081800 10006KT 4SM -RA BR BKN009 OVC015=

USA.gov is the U.S. government's official web portal to all federal, state and local government web resources and services.